sensor_id;sensor_type;location;lat;lon;timestamp;temperature;humidity
48744;DHT22;34538;48.836;9.174;2023-03-16T00:01:06;0.10;99.90
48744;DHT22;34538;48.836;9.174;2023-03-16T00:03:34;0.10;99.90
48744;DHT22;34538;48.836;9.174;2023-03-16T00:06:01;0.10;99.90
48744;DHT22;34538;48.836;9.174;2023-03-16T00:08:28;0.10;99.90
48744;DHT22;34538;48.836;9.174;2023-03-16T00:10:55;0.10;99.90
48744;DHT22;34538;48.836;9.174;2023-03-16T00:13:23;0.10;99.90
48744;DHT22;34538;48.836;9.174;2023-03-16T00:15:52;0.00;99.90
48744;DHT22;34538;48.836;9.174;2023-03-16T00:18:22;0.00;99.90
48744;DHT22;34538;48.836;9.174;2023-03-16T00:20:52;0.00;99.90
48744;DHT22;34538;48.836;9.174;2023-03-16T00:23:20;0.00;99.90
48744;DHT22;34538;48.836;9.174;2023-03-16T00:25:52;0.00;99.90
48744;DHT22;34538;48.836;9.174;2023-03-16T00:28:21;0.00;99.90
48744;DHT22;34538;48.836;9.174;2023-03-16T00:30:48;0.00;99.90
48744;DHT22;34538;48.836;9.174;2023-03-16T00:33:15;0.00;99.90
48744;DHT22;34538;48.836;9.174;2023-03-16T00:35:46;0.00;99.90
48744;DHT22;34538;48.836;9.174;2023-03-16T00:38:15;0.00;99.90
48744;DHT22;34538;48.836;9.174;2023-03-16T00:40:43;0.00;99.90
48744;DHT22;34538;48.836;9.174;2023-03-16T00:43:10;0.00;99.90
48744;DHT22;34538;48.836;9.174;2023-03-16T00:45:37;0.00;99.90
48744;DHT22;34538;48.836;9.174;2023-03-16T00:48:04;0.00;99.90
48744;DHT22;34538;48.836;9.174;2023-03-16T00:50:32;-0.10;99.90
48744;DHT22;34538;48.836;9.174;2023-03-16T00:53:00;-0.10;99.90
48744;DHT22;34538;48.836;9.174;2023-03-16T00:55:27;-0.10;99.90
48744;DHT22;34538;48.836;9.174;2023-03-16T00:57:54;-0.10;99.90
48744;DHT22;34538;48.836;9.174;2023-03-16T01:00:21;-0.10;99.90
48744;DHT22;34538;48.836;9.174;2023-03-16T01:02:52;-0.10;99.90
48744;DHT22;34538;48.836;9.174;2023-03-16T01:05:19;-0.20;99.90
48744;DHT22;34538;48.836;9.174;2023-03-16T01:07:46;-0.10;99.90
48744;DHT22;34538;48.836;9.174;2023-03-16T01:10:14;-0.20;99.90
48744;DHT22;34538;48.836;9.174;2023-03-16T01:12:42;-0.20;99.90
48744;DHT22;34538;48.836;9.174;2023-03-16T01:15:10;-0.20;99.90
48744;DHT22;34538;48.836;9.174;2023-03-16T01:17:38;-0.20;99.90
48744;DHT22;34538;48.836;9.174;2023-03-16T01:20:07;-0.20;99.90
48744;DHT22;34538;48.836;9.174;2023-03-16T01:22:37;-0.30;99.90
48744;DHT22;34538;48.836;9.174;2023-03-16T01:25:05;-0.20;99.90
48744;DHT22;34538;48.836;9.174;2023-03-16T01:27:33;-0.30;99.90
48744;DHT22;34538;48.836;9.174;2023-03-16T01:30:01;-0.30;99.90
48744;DHT22;34538;48.836;9.174;2023-03-16T01:32:29;-0.30;99.90
48744;DHT22;34538;48.836;9.174;2023-03-16T01:34:56;-0.30;99.90
48744;DHT22;34538;48.836;9.174;2023-03-16T01:37:23;-0.30;99.90
48744;DHT22;34538;48.836;9.174;2023-03-16T01:39:59;-0.30;99.90
48744;DHT22;34538;48.836;9.174;2023-03-16T01:42:26;-0.40;99.90
48744;DHT22;34538;48.836;9.174;2023-03-16T01:44:57;-0.30;99.90
48744;DHT22;34538;48.836;9.174;2023-03-16T01:47:30;-0.40;99.90
48744;DHT22;34538;48.836;9.174;2023-03-16T01:50:03;-0.40;99.90
48744;DHT22;34538;48.836;9.174;2023-03-16T01:52:35;-0.40;99.90
48744;DHT22;34538;48.836;9.174;2023-03-16T01:55:05;-0.40;99.90
48744;DHT22;34538;48.836;9.174;2023-03-16T01:57:36;-0.40;99.90
48744;DHT22;34538;48.836;9.174;2023-03-16T02:00:08;-0.40;99.90
48744;DHT22;34538;48.836;9.174;2023-03-16T02:02:53;-0.50;99.90
48744;DHT22;34538;48.836;9.174;2023-03-16T02:05:32;-0.50;99.90
48744;DHT22;34538;48.836;9.174;2023-03-16T02:08:02;-0.40;99.90
48744;DHT22;34538;48.836;9.174;2023-03-16T02:10:30;-0.50;99.90
48744;DHT22;34538;48.836;9.174;2023-03-16T02:12:58;-0.50;99.90
48744;DHT22;34538;48.836;9.174;2023-03-16T02:15:27;-0.50;99.90
48744;DHT22;34538;48.836;9.174;2023-03-16T02:17:55;-0.50;99.90
48744;DHT22;34538;48.836;9.174;2023-03-16T02:20:32;-0.50;99.90
48744;DHT22;34538;48.836;9.174;2023-03-16T02:23:01;-0.50;99.90
48744;DHT22;34538;48.836;9.174;2023-03-16T02:25:38;-0.50;99.90
48744;DHT22;34538;48.836;9.174;2023-03-16T02:28:13;-0.60;99.90
48744;DHT22;34538;48.836;9.174;2023-03-16T02:30:46;-0.60;99.90
48744;DHT22;34538;48.836;9.174;2023-03-16T02:33:15;-0.60;99.90
48744;DHT22;34538;48.836;9.174;2023-03-16T02:35:43;-0.50;99.90
48744;DHT22;34538;48.836;9.174;2023-03-16T02:38:10;-0.50;99.90
48744;DHT22;34538;48.836;9.174;2023-03-16T02:40:45;-0.50;99.90
48744;DHT22;34538;48.836;9.174;2023-03-16T02:43:22;-0.50;99.90
48744;DHT22;34538;48.836;9.174;2023-03-16T02:46:03;-0.50;99.90
48744;DHT22;34538;48.836;9.174;2023-03-16T02:48:36;-0.50;99.90
48744;DHT22;34538;48.836;9.174;2023-03-16T02:51:04;-0.50;99.90
48744;DHT22;34538;48.836;9.174;2023-03-16T02:53:31;-0.50;99.90
48744;DHT22;34538;48.836;9.174;2023-03-16T02:56:00;-0.50;99.90
48744;DHT22;34538;48.836;9.174;2023-03-16T02:58:30;-0.50;99.90
48744;DHT22;34538;48.836;9.174;2023-03-16T03:01:00;-0.50;99.90
48744;DHT22;34538;48.836;9.174;2023-03-16T03:03:30;-0.50;99.90
48744;DHT22;34538;48.836;9.174;2023-03-16T03:05:58;-0.50;99.90
48744;DHT22;34538;48.836;9.174;2023-03-16T03:08:27;-0.50;99.90
48744;DHT22;34538;48.836;9.174;2023-03-16T03:10:54;-0.50;99.90
48744;DHT22;34538;48.836;9.174;2023-03-16T03:13:21;-0.50;99.90
48744;DHT22;34538;48.836;9.174;2023-03-16T03:15:48;-0.50;99.90
48744;DHT22;34538;48.836;9.174;2023-03-16T03:18:15;-0.50;99.90
48744;DHT22;34538;48.836;9.174;2023-03-16T03:20:44;-0.50;99.90
48744;DHT22;34538;48.836;9.174;2023-03-16T03:23:11;-0.50;99.90
48744;DHT22;34538;48.836;9.174;2023-03-16T03:25:40;-0.40;99.90
48744;DHT22;34538;48.836;9.174;2023-03-16T03:28:07;-0.40;99.90
48744;DHT22;34538;48.836;9.174;2023-03-16T03:30:34;-0.30;99.90
48744;DHT22;34538;48.836;9.174;2023-03-16T03:33:03;-0.30;99.90
48744;DHT22;34538;48.836;9.174;2023-03-16T03:35:30;-0.30;99.90
48744;DHT22;34538;48.836;9.174;2023-03-16T03:37:58;-0.20;99.90
48744;DHT22;34538;48.836;9.174;2023-03-16T03:40:26;-0.20;99.90
48744;DHT22;34538;48.836;9.174;2023-03-16T03:42:57;-0.20;99.90
48744;DHT22;34538;48.836;9.174;2023-03-16T03:45:24;-0.10;99.90
48744;DHT22;34538;48.836;9.174;2023-03-16T03:47:52;-0.10;99.90
48744;DHT22;34538;48.836;9.174;2023-03-16T03:50:21;-0.10;99.90
48744;DHT22;34538;48.836;9.174;2023-03-16T03:52:57;-0.10;99.90
48744;DHT22;34538;48.836;9.174;2023-03-16T03:55:27;-0.10;99.90
48744;DHT22;34538;48.836;9.174;2023-03-16T03:57:54;0.00;99.90
48744;DHT22;34538;48.836;9.174;2023-03-16T04:00:21;0.00;99.90
48744;DHT22;34538;48.836;9.174;2023-03-16T04:02:48;0.00;99.90
48744;DHT22;34538;48.836;9.174;2023-03-16T04:05:27;0.00;99.90
48744;DHT22;34538;48.836;9.174;2023-03-16T04:07:54;0.00;99.90
48744;DHT22;34538;48.836;9.174;2023-03-16T04:10:24;0.00;99.90
48744;DHT22;34538;48.836;9.174;2023-03-16T04:12:51;0.00;99.90
48744;DHT22;34538;48.836;9.174;2023-03-16T04:15:18;0.00;99.90
48744;DHT22;34538;48.836;9.174;2023-03-16T04:17:59;0.00;99.90
48744;DHT22;34538;48.836;9.174;2023-03-16T04:20:26;0.00;99.90
48744;DHT22;34538;48.836;9.174;2023-03-16T04:22:55;0.00;99.90
48744;DHT22;34538;48.836;9.174;2023-03-16T04:25:26;0.00;99.90
48744;DHT22;34538;48.836;9.174;2023-03-16T04:27:55;0.00;99.90
48744;DHT22;34538;48.836;9.174;2023-03-16T04:30:27;0.00;99.90
48744;DHT22;34538;48.836;9.174;2023-03-16T04:33:04;-0.10;99.90
48744;DHT22;34538;48.836;9.174;2023-03-16T04:35:31;-0.10;99.90
48744;DHT22;34538;48.836;9.174;2023-03-16T04:37:58;-0.20;99.90
48744;DHT22;34538;48.836;9.174;2023-03-16T04:40:37;-0.20;99.90
48744;DHT22;34538;48.836;9.174;2023-03-16T04:43:14;-0.20;99.90
48744;DHT22;34538;48.836;9.174;2023-03-16T04:45:42;-0.20;99.90
48744;DHT22;34538;48.836;9.174;2023-03-16T04:48:10;-0.20;99.90
48744;DHT22;34538;48.836;9.174;2023-03-16T04:50:37;-0.30;99.90
48744;DHT22;34538;48.836;9.174;2023-03-16T04:53:05;-0.30;99.90
48744;DHT22;34538;48.836;9.174;2023-03-16T04:55:33;-0.30;99.90
48744;DHT22;34538;48.836;9.174;2023-03-16T04:58:02;-0.30;99.90
48744;DHT22;34538;48.836;9.174;2023-03-16T05:00:33;-0.30;99.90
48744;DHT22;34538;48.836;9.174;2023-03-16T05:03:08;-0.30;99.90
48744;DHT22;34538;48.836;9.174;2023-03-16T05:05:36;-0.30;99.90
48744;DHT22;34538;48.836;9.174;2023-03-16T05:08:03;-0.30;99.90
48744;DHT22;34538;48.836;9.174;2023-03-16T05:10:32;-0.30;99.90
48744;DHT22;34538;48.836;9.174;2023-03-16T05:13:02;-0.30;99.90
48744;DHT22;34538;48.836;9.174;2023-03-16T05:15:29;-0.30;99.90
48744;DHT22;34538;48.836;9.174;2023-03-16T05:18:17;-0.30;99.90
48744;DHT22;34538;48.836;9.174;2023-03-16T05:20:44;-0.30;99.90
48744;DHT22;34538;48.836;9.174;2023-03-16T05:23:12;-0.30;99.90
48744;DHT22;34538;48.836;9.174;2023-03-16T05:25:45;-0.30;99.90
48744;DHT22;34538;48.836;9.174;2023-03-16T05:28:14;-0.30;99.90
48744;DHT22;34538;48.836;9.174;2023-03-16T05:30:51;-0.30;99.90
48744;DHT22;34538;48.836;9.174;2023-03-16T05:33:23;-0.30;99.90
48744;DHT22;34538;48.836;9.174;2023-03-16T05:35:55;-0.30;99.90
48744;DHT22;34538;48.836;9.174;2023-03-16T05:38:24;-0.30;99.90
48744;DHT22;34538;48.836;9.174;2023-03-16T05:40:53;-0.30;99.90
48744;DHT22;34538;48.836;9.174;2023-03-16T05:43:37;-0.30;99.90
48744;DHT22;34538;48.836;9.174;2023-03-16T05:46:04;-0.40;99.90
48744;DHT22;34538;48.836;9.174;2023-03-16T05:48:32;-0.40;99.90
48744;DHT22;34538;48.836;9.174;2023-03-16T05:51:03;-0.40;99.90
48744;DHT22;34538;48.836;9.174;2023-03-16T05:53:31;-0.40;99.90
48744;DHT22;34538;48.836;9.174;2023-03-16T05:56:12;-0.40;99.90
48744;DHT22;34538;48.836;9.174;2023-03-16T05:58:43;-0.40;99.90
48744;DHT22;34538;48.836;9.174;2023-03-16T06:01:10;-0.40;99.90
48744;DHT22;34538;48.836;9.174;2023-03-16T06:03:40;-0.40;99.90
48744;DHT22;34538;48.836;9.174;2023-03-16T06:06:12;-0.40;99.90
48744;DHT22;34538;48.836;9.174;2023-03-16T06:08:50;-0.40;99.90
48744;DHT22;34538;48.836;9.174;2023-03-16T06:11:19;-0.30;99.90
48744;DHT22;34538;48.836;9.174;2023-03-16T06:13:48;-0.30;99.90
48744;DHT22;34538;48.836;9.174;2023-03-16T06:16:16;-0.30;99.90
48744;DHT22;34538;48.836;9.174;2023-03-16T06:18:44;-0.30;99.90
48744;DHT22;34538;48.836;9.174;2023-03-16T06:21:11;-0.20;99.90
48744;DHT22;34538;48.836;9.174;2023-03-16T06:23:38;-0.20;99.90
48744;DHT22;34538;48.836;9.174;2023-03-16T06:26:07;-0.10;99.90
48744;DHT22;34538;48.836;9.174;2023-03-16T06:28:36;-0.10;99.90
48744;DHT22;34538;48.836;9.174;2023-03-16T06:31:05;0.00;99.90
48744;DHT22;34538;48.836;9.174;2023-03-16T06:33:34;0.00;99.90
48744;DHT22;34538;48.836;9.174;2023-03-16T06:36:02;0.10;99.90
48744;DHT22;34538;48.836;9.174;2023-03-16T06:38:34;0.20;99.90
48744;DHT22;34538;48.836;9.174;2023-03-16T06:41:05;0.20;99.90
48744;DHT22;34538;48.836;9.174;2023-03-16T06:43:33;0.30;99.90
48744;DHT22;34538;48.836;9.174;2023-03-16T06:46:00;0.40;99.90
48744;DHT22;34538;48.836;9.174;2023-03-16T06:48:29;0.50;99.90
48744;DHT22;34538;48.836;9.174;2023-03-16T06:50:56;0.50;99.90
48744;DHT22;34538;48.836;9.174;2023-03-16T06:53:26;0.60;99.90
48744;DHT22;34538;48.836;9.174;2023-03-16T06:55:55;0.70;99.90
48744;DHT22;34538;48.836;9.174;2023-03-16T06:58:22;0.80;99.90
48744;DHT22;34538;48.836;9.174;2023-03-16T07:00:49;0.80;99.90
48744;DHT22;34538;48.836;9.174;2023-03-16T07:03:18;0.90;99.90
48744;DHT22;34538;48.836;9.174;2023-03-16T07:05:52;0.90;99.90
48744;DHT22;34538;48.836;9.174;2023-03-16T07:08:19;1.00;99.90
48744;DHT22;34538;48.836;9.174;2023-03-16T07:10:46;1.10;99.90
48744;DHT22;34538;48.836;9.174;2023-03-16T07:13:13;1.20;99.90
48744;DHT22;34538;48.836;9.174;2023-03-16T07:15:41;1.20;99.90
48744;DHT22;34538;48.836;9.174;2023-03-16T07:18:09;1.30;99.90
48744;DHT22;34538;48.836;9.174;2023-03-16T07:20:37;1.40;99.90
48744;DHT22;34538;48.836;9.174;2023-03-16T07:23:07;1.50;99.90
48744;DHT22;34538;48.836;9.174;2023-03-16T07:25:35;1.60;99.90
48744;DHT22;34538;48.836;9.174;2023-03-16T07:28:03;1.70;99.90
48744;DHT22;34538;48.836;9.174;2023-03-16T07:30:36;1.70;99.90
48744;DHT22;34538;48.836;9.174;2023-03-16T07:33:04;1.80;99.90
48744;DHT22;34538;48.836;9.174;2023-03-16T07:35:31;1.90;99.90
48744;DHT22;34538;48.836;9.174;2023-03-16T07:37:58;1.90;99.90
48744;DHT22;34538;48.836;9.174;2023-03-16T07:40:27;2.00;99.90
48744;DHT22;34538;48.836;9.174;2023-03-16T07:43:00;2.10;99.90
48744;DHT22;34538;48.836;9.174;2023-03-16T07:45:34;2.20;99.90
48744;DHT22;34538;48.836;9.174;2023-03-16T07:48:02;2.30;99.90
48744;DHT22;34538;48.836;9.174;2023-03-16T07:50:42;2.30;99.90
48744;DHT22;34538;48.836;9.174;2023-03-16T07:53:09;2.50;99.90
48744;DHT22;34538;48.836;9.174;2023-03-16T07:55:40;2.50;99.90
48744;DHT22;34538;48.836;9.174;2023-03-16T07:58:07;2.70;99.90
48744;DHT22;34538;48.836;9.174;2023-03-16T08:00:37;2.80;99.90
48744;DHT22;34538;48.836;9.174;2023-03-16T08:03:04;2.80;99.90
48744;DHT22;34538;48.836;9.174;2023-03-16T08:05:32;2.90;99.90
48744;DHT22;34538;48.836;9.174;2023-03-16T08:08:05;3.10;99.90
48744;DHT22;34538;48.836;9.174;2023-03-16T08:10:35;3.20;99.90
48744;DHT22;34538;48.836;9.174;2023-03-16T08:13:09;3.30;99.90
48744;DHT22;34538;48.836;9.174;2023-03-16T08:15:40;3.40;99.90
48744;DHT22;34538;48.836;9.174;2023-03-16T08:18:15;3.50;99.90
48744;DHT22;34538;48.836;9.174;2023-03-16T08:20:42;3.60;99.90
48744;DHT22;34538;48.836;9.174;2023-03-16T08:23:10;3.80;99.90
48744;DHT22;34538;48.836;9.174;2023-03-16T08:25:39;3.90;99.90
48744;DHT22;34538;48.836;9.174;2023-03-16T08:28:15;3.90;99.90
48744;DHT22;34538;48.836;9.174;2023-03-16T08:30:49;4.00;99.90
48744;DHT22;34538;48.836;9.174;2023-03-16T08:33:39;4.10;99.90
48744;DHT22;34538;48.836;9.174;2023-03-16T08:36:09;4.20;99.90
48744;DHT22;34538;48.836;9.174;2023-03-16T08:38:38;4.30;99.90
48744;DHT22;34538;48.836;9.174;2023-03-16T08:41:08;4.40;99.90
48744;DHT22;34538;48.836;9.174;2023-03-16T08:43:40;4.50;99.90
48744;DHT22;34538;48.836;9.174;2023-03-16T08:46:07;4.50;99.90
48744;DHT22;34538;48.836;9.174;2023-03-16T08:48:43;4.60;99.90
48744;DHT22;34538;48.836;9.174;2023-03-16T08:51:10;4.70;99.90
48744;DHT22;34538;48.836;9.174;2023-03-16T08:53:37;4.80;99.90
48744;DHT22;34538;48.836;9.174;2023-03-16T08:56:05;4.90;99.90
48744;DHT22;34538;48.836;9.174;2023-03-16T08:58:34;5.00;99.90
48744;DHT22;34538;48.836;9.174;2023-03-16T09:01:03;5.00;99.90
48744;DHT22;34538;48.836;9.174;2023-03-16T09:03:31;5.10;99.90
48744;DHT22;34538;48.836;9.174;2023-03-16T09:06:00;5.20;99.90
48744;DHT22;34538;48.836;9.174;2023-03-16T09:08:27;5.30;99.90
48744;DHT22;34538;48.836;9.174;2023-03-16T09:10:58;5.40;99.90
48744;DHT22;34538;48.836;9.174;2023-03-16T09:13:26;5.50;99.90
48744;DHT22;34538;48.836;9.174;2023-03-16T09:15:53;5.60;99.90
48744;DHT22;34538;48.836;9.174;2023-03-16T09:18:22;5.70;99.90
48744;DHT22;34538;48.836;9.174;2023-03-16T09:20:50;5.70;99.90
48744;DHT22;34538;48.836;9.174;2023-03-16T09:23:18;5.80;99.90
48744;DHT22;34538;48.836;9.174;2023-03-16T09:25:45;5.90;99.90
48744;DHT22;34538;48.836;9.174;2023-03-16T09:28:12;6.00;99.90
48744;DHT22;34538;48.836;9.174;2023-03-16T09:30:40;6.10;99.90
48744;DHT22;34538;48.836;9.174;2023-03-16T09:33:07;6.20;99.90
48744;DHT22;34538;48.836;9.174;2023-03-16T09:35:37;6.40;99.90
48744;DHT22;34538;48.836;9.174;2023-03-16T09:38:04;6.50;99.90
48744;DHT22;34538;48.836;9.174;2023-03-16T09:40:32;6.50;99.90
48744;DHT22;34538;48.836;9.174;2023-03-16T09:43:18;6.60;99.90
48744;DHT22;34538;48.836;9.174;2023-03-16T09:45:52;6.70;99.90
48744;DHT22;34538;48.836;9.174;2023-03-16T09:48:22;6.80;99.90
48744;DHT22;34538;48.836;9.174;2023-03-16T09:50:53;6.90;99.90
48744;DHT22;34538;48.836;9.174;2023-03-16T09:53:24;7.00;99.90
48744;DHT22;34538;48.836;9.174;2023-03-16T09:55:52;7.00;99.90
48744;DHT22;34538;48.836;9.174;2023-03-16T09:58:21;7.10;99.90
48744;DHT22;34538;48.836;9.174;2023-03-16T10:00:55;7.20;99.90
48744;DHT22;34538;48.836;9.174;2023-03-16T10:03:35;7.30;99.90
48744;DHT22;34538;48.836;9.174;2023-03-16T10:06:08;7.40;99.90
48744;DHT22;34538;48.836;9.174;2023-03-16T10:08:41;7.50;99.90
48744;DHT22;34538;48.836;9.174;2023-03-16T10:11:20;7.60;99.90
48744;DHT22;34538;48.836;9.174;2023-03-16T10:13:51;7.70;99.90
48744;DHT22;34538;48.836;9.174;2023-03-16T10:16:21;7.80;99.90
48744;DHT22;34538;48.836;9.174;2023-03-16T10:18:55;7.80;99.90
48744;DHT22;34538;48.836;9.174;2023-03-16T10:21:24;8.00;99.90
48744;DHT22;34538;48.836;9.174;2023-03-16T10:23:53;8.10;99.90
48744;DHT22;34538;48.836;9.174;2023-03-16T10:26:24;8.20;99.90
48744;DHT22;34538;48.836;9.174;2023-03-16T10:28:54;8.30;99.90
48744;DHT22;34538;48.836;9.174;2023-03-16T10:31:22;8.40;99.90
48744;DHT22;34538;48.836;9.174;2023-03-16T10:33:52;8.40;99.90
48744;DHT22;34538;48.836;9.174;2023-03-16T10:36:27;8.50;99.90
48744;DHT22;34538;48.836;9.174;2023-03-16T10:38:58;8.50;99.90
48744;DHT22;34538;48.836;9.174;2023-03-16T10:41:28;8.60;99.90
48744;DHT22;34538;48.836;9.174;2023-03-16T10:43:56;8.70;99.90
48744;DHT22;34538;48.836;9.174;2023-03-16T10:46:26;8.70;99.90
48744;DHT22;34538;48.836;9.174;2023-03-16T10:48:55;8.80;99.90
48744;DHT22;34538;48.836;9.174;2023-03-16T10:51:27;8.80;99.90
48744;DHT22;34538;48.836;9.174;2023-03-16T10:54:00;8.80;99.90
48744;DHT22;34538;48.836;9.174;2023-03-16T10:56:33;8.90;99.90
48744;DHT22;34538;48.836;9.174;2023-03-16T10:59:20;8.90;99.90
48744;DHT22;34538;48.836;9.174;2023-03-16T11:01:53;9.10;99.90
48744;DHT22;34538;48.836;9.174;2023-03-16T11:04:20;9.20;99.90
48744;DHT22;34538;48.836;9.174;2023-03-16T11:06:52;9.20;99.90
48744;DHT22;34538;48.836;9.174;2023-03-16T11:09:22;9.30;99.90
48744;DHT22;34538;48.836;9.174;2023-03-16T11:11:51;9.30;99.90
48744;DHT22;34538;48.836;9.174;2023-03-16T11:14:20;9.30;99.90
48744;DHT22;34538;48.836;9.174;2023-03-16T11:16:50;9.40;99.90
48744;DHT22;34538;48.836;9.174;2023-03-16T11:19:22;9.40;99.90
48744;DHT22;34538;48.836;9.174;2023-03-16T11:21:56;9.50;99.90
48744;DHT22;34538;48.836;9.174;2023-03-16T11:24:31;9.50;99.90
48744;DHT22;34538;48.836;9.174;2023-03-16T11:27:02;9.60;99.90
48744;DHT22;34538;48.836;9.174;2023-03-16T11:29:42;9.60;99.90
48744;DHT22;34538;48.836;9.174;2023-03-16T11:32:15;9.80;99.90
48744;DHT22;34538;48.836;9.174;2023-03-16T11:34:43;9.90;99.90
48744;DHT22;34538;48.836;9.174;2023-03-16T11:37:23;10.00;99.90
48744;DHT22;34538;48.836;9.174;2023-03-16T11:40:01;10.00;99.90
48744;DHT22;34538;48.836;9.174;2023-03-16T11:42:44;10.10;99.90
48744;DHT22;34538;48.836;9.174;2023-03-16T11:45:18;10.20;99.90
48744;DHT22;34538;48.836;9.174;2023-03-16T11:47:56;10.20;99.90
48744;DHT22;34538;48.836;9.174;2023-03-16T11:50:29;10.20;99.90
48744;DHT22;34538;48.836;9.174;2023-03-16T11:53:04;10.20;99.90
48744;DHT22;34538;48.836;9.174;2023-03-16T11:55:41;10.30;99.90
48744;DHT22;34538;48.836;9.174;2023-03-16T11:58:21;10.30;99.90
48744;DHT22;34538;48.836;9.174;2023-03-16T12:01:00;10.40;99.90
48744;DHT22;34538;48.836;9.174;2023-03-16T12:07:03;10.50;99.90
48744;DHT22;34538;48.836;9.174;2023-03-16T12:09:57;10.60;99.90
48744;DHT22;34538;48.836;9.174;2023-03-16T12:12:40;10.60;99.90
48744;DHT22;34538;48.836;9.174;2023-03-16T12:15:23;10.60;99.90
48744;DHT22;34538;48.836;9.174;2023-03-16T12:17:54;10.60;99.90
48744;DHT22;34538;48.836;9.174;2023-03-16T12:20:26;10.80;99.90
48744;DHT22;34538;48.836;9.174;2023-03-16T12:22:57;10.80;99.90
48744;DHT22;34538;48.836;9.174;2023-03-16T12:25:30;10.90;99.90
48744;DHT22;34538;48.836;9.174;2023-03-16T12:27:59;11.10;99.90
48744;DHT22;34538;48.836;9.174;2023-03-16T12:30:35;11.20;99.50
48744;DHT22;34538;48.836;9.174;2023-03-16T12:33:11;11.30;99.90
48744;DHT22;34538;48.836;9.174;2023-03-16T12:35:44;11.40;99.50
48744;DHT22;34538;48.836;9.174;2023-03-16T12:38:24;11.40;99.40
48744;DHT22;34538;48.836;9.174;2023-03-16T12:41:07;11.50;99.90
48744;DHT22;34538;48.836;9.174;2023-03-16T12:43:48;11.70;99.30
48744;DHT22;34538;48.836;9.174;2023-03-16T12:46:23;11.80;99.90
48744;DHT22;34538;48.836;9.174;2023-03-16T12:48:54;11.90;98.30
48744;DHT22;34538;48.836;9.174;2023-03-16T12:51:31;11.90;99.30
48744;DHT22;34538;48.836;9.174;2023-03-16T12:53:58;11.90;99.20
48744;DHT22;34538;48.836;9.174;2023-03-16T12:56:30;11.90;98.60
48744;DHT22;34538;48.836;9.174;2023-03-16T12:58:59;11.90;99.80
48744;DHT22;34538;48.836;9.174;2023-03-16T13:01:29;11.90;98.90
48744;DHT22;34538;48.836;9.174;2023-03-16T13:04:07;11.90;99.10
48744;DHT22;34538;48.836;9.174;2023-03-16T13:06:35;11.90;98.70
48744;DHT22;34538;48.836;9.174;2023-03-16T13:09:04;11.90;99.70
48744;DHT22;34538;48.836;9.174;2023-03-16T13:11:42;11.90;99.40
48744;DHT22;34538;48.836;9.174;2023-03-16T13:14:16;11.80;99.30
48744;DHT22;34538;48.836;9.174;2023-03-16T13:17:01;11.80;98.80
48744;DHT22;34538;48.836;9.174;2023-03-16T13:19:29;11.70;99.40
48744;DHT22;34538;48.836;9.174;2023-03-16T13:22:05;11.70;98.40
48744;DHT22;34538;48.836;9.174;2023-03-16T13:24:50;11.80;98.10
48744;DHT22;34538;48.836;9.174;2023-03-16T13:27:24;11.70;98.10
48744;DHT22;34538;48.836;9.174;2023-03-16T13:29:57;11.70;96.70
48744;DHT22;34538;48.836;9.174;2023-03-16T13:32:26;11.70;98.30
48744;DHT22;34538;48.836;9.174;2023-03-16T13:34:57;11.60;97.90
48744;DHT22;34538;48.836;9.174;2023-03-16T13:37:27;11.60;98.30
48744;DHT22;34538;48.836;9.174;2023-03-16T13:39:55;11.60;98.60
48744;DHT22;34538;48.836;9.174;2023-03-16T13:42:25;11.60;98.30
48744;DHT22;34538;48.836;9.174;2023-03-16T13:44:54;11.60;98.00
48744;DHT22;34538;48.836;9.174;2023-03-16T13:47:25;11.60;98.30
48744;DHT22;34538;48.836;9.174;2023-03-16T13:49:55;11.60;99.20
48744;DHT22;34538;48.836;9.174;2023-03-16T13:52:26;11.60;98.50
48744;DHT22;34538;48.836;9.174;2023-03-16T13:54:54;11.60;98.10
48744;DHT22;34538;48.836;9.174;2023-03-16T13:57:25;11.70;98.00
48744;DHT22;34538;48.836;9.174;2023-03-16T14:00:00;11.70;98.50
48744;DHT22;34538;48.836;9.174;2023-03-16T14:02:35;11.80;97.60
48744;DHT22;34538;48.836;9.174;2023-03-16T14:05:08;11.80;97.10
48744;DHT22;34538;48.836;9.174;2023-03-16T14:07:36;11.90;97.70
48744;DHT22;34538;48.836;9.174;2023-03-16T14:10:05;12.00;98.40
48744;DHT22;34538;48.836;9.174;2023-03-16T14:12:33;12.10;98.40
48744;DHT22;34538;48.836;9.174;2023-03-16T14:15:04;12.10;97.60
48744;DHT22;34538;48.836;9.174;2023-03-16T14:17:32;12.10;97.30
48744;DHT22;34538;48.836;9.174;2023-03-16T14:19:59;12.20;98.40
48744;DHT22;34538;48.836;9.174;2023-03-16T14:22:31;12.20;97.60
48744;DHT22;34538;48.836;9.174;2023-03-16T14:25:01;12.20;97.60
48744;DHT22;34538;48.836;9.174;2023-03-16T14:27:41;12.20;97.90
48744;DHT22;34538;48.836;9.174;2023-03-16T14:30:15;12.30;97.20
48744;DHT22;34538;48.836;9.174;2023-03-16T14:32:54;12.30;96.70
48744;DHT22;34538;48.836;9.174;2023-03-16T14:35:21;12.40;97.20
48744;DHT22;34538;48.836;9.174;2023-03-16T14:37:48;12.40;97.00
48744;DHT22;34538;48.836;9.174;2023-03-16T14:40:27;12.50;96.90
48744;DHT22;34538;48.836;9.174;2023-03-16T14:42:58;12.40;97.20
48744;DHT22;34538;48.836;9.174;2023-03-16T14:45:30;12.50;96.40
48744;DHT22;34538;48.836;9.174;2023-03-16T14:48:03;12.50;97.30
48744;DHT22;34538;48.836;9.174;2023-03-16T14:50:31;12.50;97.30
48744;DHT22;34538;48.836;9.174;2023-03-16T14:52:59;12.50;96.60
48744;DHT22;34538;48.836;9.174;2023-03-16T14:55:28;12.50;96.00
48744;DHT22;34538;48.836;9.174;2023-03-16T14:57:56;12.50;96.20
48744;DHT22;34538;48.836;9.174;2023-03-16T15:00:23;12.40;96.20
48744;DHT22;34538;48.836;9.174;2023-03-16T15:02:58;12.50;97.20
48744;DHT22;34538;48.836;9.174;2023-03-16T15:05:31;12.50;96.10
48744;DHT22;34538;48.836;9.174;2023-03-16T15:07:59;12.50;95.90
48744;DHT22;34538;48.836;9.174;2023-03-16T15:10:28;12.50;96.20
48744;DHT22;34538;48.836;9.174;2023-03-16T15:12:59;12.50;96.20
48744;DHT22;34538;48.836;9.174;2023-03-16T15:15:38;12.50;96.10
48744;DHT22;34538;48.836;9.174;2023-03-16T15:18:05;12.50;95.50
48744;DHT22;34538;48.836;9.174;2023-03-16T15:20:37;12.60;95.40
48744;DHT22;34538;48.836;9.174;2023-03-16T15:23:05;12.60;95.20
48744;DHT22;34538;48.836;9.174;2023-03-16T15:25:34;12.60;95.00
48744;DHT22;34538;48.836;9.174;2023-03-16T15:28:10;12.60;95.40
48744;DHT22;34538;48.836;9.174;2023-03-16T15:30:38;12.50;95.50
48744;DHT22;34538;48.836;9.174;2023-03-16T15:33:07;12.50;95.80
48744;DHT22;34538;48.836;9.174;2023-03-16T15:35:34;12.50;95.80
48744;DHT22;34538;48.836;9.174;2023-03-16T15:38:05;12.50;96.50
48744;DHT22;34538;48.836;9.174;2023-03-16T15:40:33;12.60;95.80
48744;DHT22;34538;48.836;9.174;2023-03-16T15:43:01;12.60;95.30
48744;DHT22;34538;48.836;9.174;2023-03-16T15:45:30;12.60;96.20
48744;DHT22;34538;48.836;9.174;2023-03-16T15:47:57;12.60;94.80
48744;DHT22;34538;48.836;9.174;2023-03-16T15:50:25;12.50;95.40
48744;DHT22;34538;48.836;9.174;2023-03-16T15:52:54;12.50;95.40
48744;DHT22;34538;48.836;9.174;2023-03-16T15:55:27;12.50;95.20
48744;DHT22;34538;48.836;9.174;2023-03-16T15:57:59;12.50;95.90
48744;DHT22;34538;48.836;9.174;2023-03-16T16:00:31;12.40;95.60
48744;DHT22;34538;48.836;9.174;2023-03-16T16:02:59;12.40;95.50